sensor_id;sensor_type;location;lat;lon;timestamp;P1;durP1;ratioP1;P2;durP2;ratioP2
48367;SDS011;34173;47.446;18.912;2023-02-01T00:05:32;5.85;;;1.95;;
48367;SDS011;34173;47.446;18.912;2023-02-01T00:07:59;9.10;;;2.83;;
48367;SDS011;34173;47.446;18.912;2023-02-01T00:12:54;9.25;;;3.28;;
48367;SDS011;34173;47.446;18.912;2023-02-01T00:15:22;6.55;;;2.72;;
48367;SDS011;34173;47.446;18.912;2023-02-01T00:17:54;6.15;;;2.80;;
48367;SDS011;34173;47.446;18.912;2023-02-01T00:20:22;7.18;;;2.58;;
48367;SDS011;34173;47.446;18.912;2023-02-01T00:22:51;9.55;;;2.37;;
48367;SDS011;34173;47.446;18.912;2023-02-01T00:25:18;4.70;;;1.83;;
48367;SDS011;34173;47.446;18.912;2023-02-01T00:27:49;4.97;;;2.42;;
48367;SDS011;34173;47.446;18.912;2023-02-01T00:30:17;7.07;;;2.75;;
48367;SDS011;34173;47.446;18.912;2023-02-01T08:28:10;5.12;;;2.60;;
48367;SDS011;34173;47.446;18.912;2023-02-01T08:30:37;5.72;;;3.00;;
48367;SDS011;34173;47.446;18.912;2023-02-01T08:33:05;6.87;;;3.40;;
48367;SDS011;34173;47.446;18.912;2023-02-01T08:35:36;6.03;;;3.33;;
48367;SDS011;34173;47.446;18.912;2023-02-01T08:38:10;7.18;;;3.05;;
48367;SDS011;34173;47.446;18.912;2023-02-01T08:43:05;5.65;;;2.95;;
48367;SDS011;34173;47.446;18.912;2023-02-01T08:50:27;8.30;;;3.03;;
48367;SDS011;34173;47.446;18.912;2023-02-01T08:52:55;7.30;;;2.80;;
48367;SDS011;34173;47.446;18.912;2023-02-01T08:55:24;7.57;;;2.62;;
48367;SDS011;34173;47.446;18.912;2023-02-01T08:57:52;7.03;;;2.87;;
48367;SDS011;34173;47.446;18.912;2023-02-01T09:00:19;5.00;;;2.50;;
48367;SDS011;34173;47.446;18.912;2023-02-01T09:02:47;8.07;;;3.08;;
48367;SDS011;34173;47.446;18.912;2023-02-01T09:05:15;5.25;;;2.62;;
48367;SDS011;34173;47.446;18.912;2023-02-01T09:12:43;7.93;;;4.05;;
48367;SDS011;34173;47.446;18.912;2023-02-01T09:15:10;5.93;;;2.58;;
48367;SDS011;34173;47.446;18.912;2023-02-01T09:25:01;7.12;;;2.85;;
48367;SDS011;34173;47.446;18.912;2023-02-01T09:27:29;4.55;;;1.90;;
48367;SDS011;34173;47.446;18.912;2023-02-01T09:29:56;5.68;;;2.33;;
48367;SDS011;34173;47.446;18.912;2023-02-01T09:32:24;5.15;;;2.62;;
48367;SDS011;34173;47.446;18.912;2023-02-01T09:34:52;7.70;;;2.58;;
48367;SDS011;34173;47.446;18.912;2023-02-01T09:37:20;5.55;;;2.05;;
48367;SDS011;34173;47.446;18.912;2023-02-01T09:39:47;4.65;;;2.35;;
48367;SDS011;34173;47.446;18.912;2023-02-01T09:42:34;5.18;;;2.72;;
48367;SDS011;34173;47.446;18.912;2023-02-01T09:45:19;7.25;;;2.47;;
48367;SDS011;34173;47.446;18.912;2023-02-01T09:47:49;5.18;;;2.10;;
48367;SDS011;34173;47.446;18.912;2023-02-01T09:50:21;6.57;;;3.08;;
48367;SDS011;34173;47.446;18.912;2023-02-01T09:52:55;7.00;;;2.60;;
48367;SDS011;34173;47.446;18.912;2023-02-01T09:55:44;6.32;;;2.45;;
48367;SDS011;34173;47.446;18.912;2023-02-01T10:00:45;7.20;;;3.05;;
48367;SDS011;34173;47.446;18.912;2023-02-01T10:03:19;7.70;;;3.15;;
48367;SDS011;34173;47.446;18.912;2023-02-01T10:22:26;7.18;;;3.67;;
48367;SDS011;34173;47.446;18.912;2023-02-01T10:28:07;7.85;;;3.47;;
48367;SDS011;34173;47.446;18.912;2023-02-01T10:30:42;5.15;;;2.37;;
48367;SDS011;34173;47.446;18.912;2023-02-01T10:33:32;5.75;;;2.95;;
48367;SDS011;34173;47.446;18.912;2023-02-01T10:38:32;6.37;;;3.33;;
48367;SDS011;34173;47.446;18.912;2023-02-01T10:41:01;7.07;;;3.05;;
48367;SDS011;34173;47.446;18.912;2023-02-01T10:43:32;6.05;;;3.17;;
48367;SDS011;34173;47.446;18.912;2023-02-01T10:46:01;7.53;;;3.22;;
48367;SDS011;34173;47.446;18.912;2023-02-01T10:48:29;6.62;;;2.90;;
48367;SDS011;34173;47.446;18.912;2023-02-01T10:50:58;11.57;;;3.08;;
48367;SDS011;34173;47.446;18.912;2023-02-01T10:56:07;8.23;;;3.30;;
48367;SDS011;34173;47.446;18.912;2023-02-01T10:58:36;8.25;;;3.97;;
48367;SDS011;34173;47.446;18.912;2023-02-01T11:01:27;6.95;;;4.05;;
48367;SDS011;34173;47.446;18.912;2023-02-01T11:03:58;7.60;;;4.07;;
48367;SDS011;34173;47.446;18.912;2023-02-01T11:06:38;8.57;;;4.03;;
48367;SDS011;34173;47.446;18.912;2023-02-01T11:11:52;8.13;;;3.92;;
48367;SDS011;34173;47.446;18.912;2023-02-01T11:14:27;7.57;;;3.47;;
48367;SDS011;34173;47.446;18.912;2023-02-01T11:19:30;7.40;;;3.80;;
48367;SDS011;34173;47.446;18.912;2023-02-01T11:21:59;6.95;;;3.72;;
48367;SDS011;34173;47.446;18.912;2023-02-01T11:24:31;8.52;;;3.83;;
48367;SDS011;34173;47.446;18.912;2023-02-01T11:27:01;6.82;;;3.90;;
48367;SDS011;34173;47.446;18.912;2023-02-01T11:29:37;6.95;;;4.00;;
48367;SDS011;34173;47.446;18.912;2023-02-01T11:32:06;8.82;;;4.00;;
48367;SDS011;34173;47.446;18.912;2023-02-01T11:34:37;8.50;;;4.28;;
48367;SDS011;34173;47.446;18.912;2023-02-01T11:37:09;7.50;;;3.80;;
48367;SDS011;34173;47.446;18.912;2023-02-01T11:39:43;10.05;;;4.15;;
48367;SDS011;34173;47.446;18.912;2023-02-01T11:42:23;7.40;;;4.20;;
48367;SDS011;34173;47.446;18.912;2023-02-01T11:45:07;10.40;;;4.75;;
48367;SDS011;34173;47.446;18.912;2023-02-01T11:47:57;8.98;;;4.55;;
48367;SDS011;34173;47.446;18.912;2023-02-01T11:50:52;7.00;;;3.45;;
48367;SDS011;34173;47.446;18.912;2023-02-01T11:53:34;6.75;;;3.55;;
48367;SDS011;34173;47.446;18.912;2023-02-01T11:56:25;8.03;;;4.93;;
